sensor_id;sensor_type;location;lat;lon;timestamp;pressure;altitude;pressure_sealevel;temperature;humidity
61318;BME280;47201;40.428;-8.436;2022-10-16T00:01:47;100504.91;;;17.39;100.00
61318;BME280;47201;40.428;-8.436;2022-10-16T00:03:48;100507.59;;;17.38;100.00
61318;BME280;47201;40.428;-8.436;2022-10-16T00:05:48;100516.44;;;17.37;100.00
61318;BME280;47201;40.428;-8.436;2022-10-16T00:07:49;100513.78;;;17.37;100.00
61318;BME280;47201;40.428;-8.436;2022-10-16T00:09:49;100513.00;;;17.35;100.00
61318;BME280;47201;40.428;-8.436;2022-10-16T00:11:50;100511.28;;;17.34;100.00
61318;BME280;47201;40.428;-8.436;2022-10-16T00:13:51;100509.41;;;17.37;100.00
61318;BME280;47201;40.428;-8.436;2022-10-16T00:15:54;100509.34;;;17.39;100.00
61318;BME280;47201;40.428;-8.436;2022-10-16T00:17:55;100511.06;;;17.40;100.00
61318;BME280;47201;40.428;-8.436;2022-10-16T00:19:55;100503.13;;;17.40;100.00
61318;BME280;47201;40.428;-8.436;2022-10-16T00:21:56;100494.34;;;17.39;100.00
61318;BME280;47201;40.428;-8.436;2022-10-16T00:23:58;100495.22;;;17.40;100.00
61318;BME280;47201;40.428;-8.436;2022-10-16T00:26:00;100489.03;;;17.39;100.00
61318;BME280;47201;40.428;-8.436;2022-10-16T00:28:01;100485.50;;;17.40;100.00
61318;BME280;47201;40.428;-8.436;2022-10-16T00:30:02;100485.50;;;17.40;100.00
61318;BME280;47201;40.428;-8.436;2022-10-16T00:32:06;100486.38;;;17.41;100.00
61318;BME280;47201;40.428;-8.436;2022-10-16T00:34:06;100483.81;;;17.38;100.00
61318;BME280;47201;40.428;-8.436;2022-10-16T00:36:08;100479.50;;;17.35;100.00
61318;BME280;47201;40.428;-8.436;2022-10-16T00:38:10;100479.56;;;17.34;100.00
61318;BME280;47201;40.428;-8.436;2022-10-16T00:40:10;100474.28;;;17.34;100.00
61318;BME280;47201;40.428;-8.436;2022-10-16T00:42:14;100471.69;;;17.32;100.00
61318;BME280;47201;40.428;-8.436;2022-10-16T00:46:37;100477.91;;;17.31;100.00
61318;BME280;47201;40.428;-8.436;2022-10-16T00:48:38;100469.03;;;17.32;100.00
61318;BME280;47201;40.428;-8.436;2022-10-16T00:50:38;100475.25;;;17.31;100.00
61318;BME280;47201;40.428;-8.436;2022-10-16T00:52:43;100472.56;;;17.33;100.00
61318;BME280;47201;40.428;-8.436;2022-10-16T00:54:44;100471.53;;;17.37;100.00
61318;BME280;47201;40.428;-8.436;2022-10-16T00:56:46;100468.63;;;17.44;100.00
61318;BME280;47201;40.428;-8.436;2022-10-16T00:58:47;100468.09;;;17.35;100.00
61318;BME280;47201;40.428;-8.436;2022-10-16T01:00:47;100472.44;;;17.36;100.00
61318;BME280;47201;40.428;-8.436;2022-10-16T01:02:55;100467.47;;;17.26;100.00
61318;BME280;47201;40.428;-8.436;2022-10-16T01:04:56;100466.66;;;17.24;100.00
61318;BME280;47201;40.428;-8.436;2022-10-16T01:09:11;100462.13;;;17.28;100.00
61318;BME280;47201;40.428;-8.436;2022-10-16T01:11:22;100461.22;;;17.29;100.00
61318;BME280;47201;40.428;-8.436;2022-10-16T01:13:31;100464.72;;;17.29;100.00
61318;BME280;47201;40.428;-8.436;2022-10-16T01:21:57;100455.06;;;17.28;100.00
61318;BME280;47201;40.428;-8.436;2022-10-16T01:28:22;100451.63;;;17.26;100.00
61318;BME280;47201;40.428;-8.436;2022-10-16T01:30:26;100456.91;;;17.26;100.00
61318;BME280;47201;40.428;-8.436;2022-10-16T01:34:31;100448.09;;;17.26;100.00
61318;BME280;47201;40.428;-8.436;2022-10-16T01:36:45;100433.03;;;17.29;100.00
61318;BME280;47201;40.428;-8.436;2022-10-16T01:38:49;100429.69;;;17.24;100.00
61318;BME280;47201;40.428;-8.436;2022-10-16T01:40:54;100436.72;;;17.24;100.00
61318;BME280;47201;40.428;-8.436;2022-10-16T01:43:01;100441.38;;;17.17;100.00
61318;BME280;47201;40.428;-8.436;2022-10-16T01:45:06;100437.06;;;17.15;100.00
61318;BME280;47201;40.428;-8.436;2022-10-16T01:47:08;100442.34;;;17.15;100.00
61318;BME280;47201;40.428;-8.436;2022-10-16T01:49:10;100443.19;;;17.15;100.00
61318;BME280;47201;40.428;-8.436;2022-10-16T01:51:12;100448.41;;;17.17;100.00
61318;BME280;47201;40.428;-8.436;2022-10-16T01:53:13;100446.53;;;17.20;100.00
61318;BME280;47201;40.428;-8.436;2022-10-16T01:55:17;100439.50;;;17.21;100.00
61318;BME280;47201;40.428;-8.436;2022-10-16T01:57:20;100436.78;;;17.22;100.00
61318;BME280;47201;40.428;-8.436;2022-10-16T01:59:23;100438.50;;;17.23;100.00
61318;BME280;47201;40.428;-8.436;2022-10-16T02:01:26;100422.66;;;17.23;100.00
61318;BME280;47201;40.428;-8.436;2022-10-16T02:03:27;100428.84;;;17.22;100.00
61318;BME280;47201;40.428;-8.436;2022-10-16T02:06:00;100431.50;;;17.22;100.00
61318;BME280;47201;40.428;-8.436;2022-10-16T02:07:54;100430.69;;;17.20;100.00
61318;BME280;47201;40.428;-8.436;2022-10-16T02:09:55;100430.88;;;17.16;100.00
61318;BME280;47201;40.428;-8.436;2022-10-16T02:11:56;100435.47;;;17.09;100.00
61318;BME280;47201;40.428;-8.436;2022-10-16T02:14:05;100429.69;;;16.98;100.00
61318;BME280;47201;40.428;-8.436;2022-10-16T02:16:06;100422.81;;;16.90;100.00
61318;BME280;47201;40.428;-8.436;2022-10-16T02:18:07;100435.31;;;16.85;100.00
61318;BME280;47201;40.428;-8.436;2022-10-16T02:20:09;100432.78;;;16.82;100.00
61318;BME280;47201;40.428;-8.436;2022-10-16T02:22:12;100434.56;;;16.81;100.00
61318;BME280;47201;40.428;-8.436;2022-10-16T02:26:17;100424.88;;;16.82;100.00
61318;BME280;47201;40.428;-8.436;2022-10-16T02:28:22;100416.91;;;16.84;100.00
61318;BME280;47201;40.428;-8.436;2022-10-16T02:30:25;100424.75;;;16.85;100.00
61318;BME280;47201;40.428;-8.436;2022-10-16T02:32:30;100414.19;;;16.85;100.00
61318;BME280;47201;40.428;-8.436;2022-10-16T02:34:31;100413.34;;;16.85;100.00
61318;BME280;47201;40.428;-8.436;2022-10-16T02:36:33;100414.13;;;16.87;100.00
61318;BME280;47201;40.428;-8.436;2022-10-16T02:38:35;100409.75;;;16.87;100.00
61318;BME280;47201;40.428;-8.436;2022-10-16T02:40:36;100404.47;;;16.87;100.00
61318;BME280;47201;40.428;-8.436;2022-10-16T02:42:38;100397.38;;;16.89;100.00
61318;BME280;47201;40.428;-8.436;2022-10-16T02:44:40;100392.09;;;16.89;100.00
61318;BME280;47201;40.428;-8.436;2022-10-16T02:46:40;100388.47;;;16.92;100.00
61318;BME280;47201;40.428;-8.436;2022-10-16T02:48:41;100388.50;;;16.90;100.00
61318;BME280;47201;40.428;-8.436;2022-10-16T02:50:41;100395.56;;;16.90;100.00
61318;BME280;47201;40.428;-8.436;2022-10-16T02:52:42;100394.81;;;16.86;100.00
61318;BME280;47201;40.428;-8.436;2022-10-16T02:54:42;100391.47;;;16.81;100.00
61318;BME280;47201;40.428;-8.436;2022-10-16T02:56:43;100400.38;;;16.77;100.00
61318;BME280;47201;40.428;-8.436;2022-10-16T02:58:43;100398.84;;;16.70;100.00
61318;BME280;47201;40.428;-8.436;2022-10-16T03:00:44;100393.78;;;16.63;100.00
61318;BME280;47201;40.428;-8.436;2022-10-16T03:02:45;100395.50;;;16.64;100.00
61318;BME280;47201;40.428;-8.436;2022-10-16T03:04:45;100393.00;;;16.60;100.00
61318;BME280;47201;40.428;-8.436;2022-10-16T03:06:46;100402.09;;;16.51;100.00
61318;BME280;47201;40.428;-8.436;2022-10-16T03:08:46;100395.06;;;16.50;100.00
61318;BME280;47201;40.428;-8.436;2022-10-16T03:10:47;100396.06;;;16.46;100.00
61318;BME280;47201;40.428;-8.436;2022-10-16T03:12:47;100391.63;;;16.48;100.00
61318;BME280;47201;40.428;-8.436;2022-10-16T03:14:48;100387.34;;;16.44;100.00
61318;BME280;47201;40.428;-8.436;2022-10-16T03:16:48;100391.00;;;16.40;100.00
61318;BME280;47201;40.428;-8.436;2022-10-16T03:18:49;100386.81;;;16.32;100.00
61318;BME280;47201;40.428;-8.436;2022-10-16T03:20:50;100384.47;;;16.23;100.00
61318;BME280;47201;40.428;-8.436;2022-10-16T03:22:50;100387.91;;;16.25;100.00
61318;BME280;47201;40.428;-8.436;2022-10-16T03:24:51;100402.78;;;16.28;100.00
61318;BME280;47201;40.428;-8.436;2022-10-16T03:26:51;100392.19;;;16.29;100.00
61318;BME280;47201;40.428;-8.436;2022-10-16T03:28:52;100401.00;;;16.28;100.00
61318;BME280;47201;40.428;-8.436;2022-10-16T03:30:52;100398.31;;;16.30;100.00
61318;BME280;47201;40.428;-8.436;2022-10-16T03:32:53;100392.19;;;16.29;100.00
61318;BME280;47201;40.428;-8.436;2022-10-16T03:34:54;100394.00;;;16.27;100.00
61318;BME280;47201;40.428;-8.436;2022-10-16T03:36:56;100391.31;;;16.29;100.00
61318;BME280;47201;40.428;-8.436;2022-10-16T03:38:57;100396.78;;;16.23;100.00
61318;BME280;47201;40.428;-8.436;2022-10-16T03:40:57;100389.06;;;16.16;100.00
61318;BME280;47201;40.428;-8.436;2022-10-16T03:42:58;100394.38;;;16.15;100.00
61318;BME280;47201;40.428;-8.436;2022-10-16T03:44:58;100391.88;;;16.10;100.00
61318;BME280;47201;40.428;-8.436;2022-10-16T03:46:59;100386.63;;;16.09;100.00
61318;BME280;47201;40.428;-8.436;2022-10-16T03:48:59;100379.66;;;16.08;100.00
61318;BME280;47201;40.428;-8.436;2022-10-16T03:51:00;100380.59;;;16.05;100.00
61318;BME280;47201;40.428;-8.436;2022-10-16T03:53:00;100378.13;;;16.00;100.00
61318;BME280;47201;40.428;-8.436;2022-10-16T03:55:01;100369.28;;;16.01;100.00
61318;BME280;47201;40.428;-8.436;2022-10-16T03:57:01;100376.38;;;15.99;100.00
61318;BME280;47201;40.428;-8.436;2022-10-16T03:59:02;100373.00;;;15.94;100.00
61318;BME280;47201;40.428;-8.436;2022-10-16T04:01:06;100378.44;;;15.90;100.00
61318;BME280;47201;40.428;-8.436;2022-10-16T04:03:06;100370.53;;;15.90;100.00
61318;BME280;47201;40.428;-8.436;2022-10-16T04:05:07;100376.81;;;15.84;100.00
61318;BME280;47201;40.428;-8.436;2022-10-16T04:07:08;100374.19;;;15.84;100.00
61318;BME280;47201;40.428;-8.436;2022-10-16T04:09:08;100370.69;;;15.82;100.00
61318;BME280;47201;40.428;-8.436;2022-10-16T04:11:09;100371.56;;;15.84;100.00
61318;BME280;47201;40.428;-8.436;2022-10-16T04:13:09;100374.13;;;15.85;100.00
61318;BME280;47201;40.428;-8.436;2022-10-16T04:15:10;100361.91;;;15.83;100.00
61318;BME280;47201;40.428;-8.436;2022-10-16T04:17:11;100364.50;;;15.84;100.00
61318;BME280;47201;40.428;-8.436;2022-10-16T04:19:11;100370.59;;;15.86;100.00
61318;BME280;47201;40.428;-8.436;2022-10-16T04:21:12;100368.81;;;15.87;100.00
61318;BME280;47201;40.428;-8.436;2022-10-16T04:23:12;100367.00;;;15.89;100.00
61318;BME280;47201;40.428;-8.436;2022-10-16T04:25:13;100366.09;;;15.90;100.00
61318;BME280;47201;40.428;-8.436;2022-10-16T04:27:14;100366.22;;;15.85;100.00
61318;BME280;47201;40.428;-8.436;2022-10-16T04:29:14;100364.47;;;15.86;100.00
61318;BME280;47201;40.428;-8.436;2022-10-16T04:31:15;100356.56;;;15.86;100.00
61318;BME280;47201;40.428;-8.436;2022-10-16T04:33:15;100363.50;;;15.89;100.00
61318;BME280;47201;40.428;-8.436;2022-10-16T04:35:16;100361.72;;;15.89;100.00
61318;BME280;47201;40.428;-8.436;2022-10-16T04:37:17;100367.91;;;15.88;100.00
61318;BME280;47201;40.428;-8.436;2022-10-16T04:39:18;100366.94;;;15.92;100.00
61318;BME280;47201;40.428;-8.436;2022-10-16T04:41:18;100376.59;;;15.92;100.00
61318;BME280;47201;40.428;-8.436;2022-10-16T04:43:19;100376.38;;;15.99;100.00
61318;BME280;47201;40.428;-8.436;2022-10-16T04:45:19;100378.00;;;16.04;100.00
61318;BME280;47201;40.428;-8.436;2022-10-16T04:47:20;100385.84;;;16.05;100.00
61318;BME280;47201;40.428;-8.436;2022-10-16T04:49:20;100380.50;;;16.08;100.00
61318;BME280;47201;40.428;-8.436;2022-10-16T04:51:21;100385.66;;;16.13;100.00
61318;BME280;47201;40.428;-8.436;2022-10-16T04:53:22;100387.31;;;16.15;100.00
61318;BME280;47201;40.428;-8.436;2022-10-16T04:55:22;100390.03;;;16.14;100.00
61318;BME280;47201;40.428;-8.436;2022-10-16T04:57:23;100389.88;;;16.18;100.00
61318;BME280;47201;40.428;-8.436;2022-10-16T04:59:23;100401.28;;;16.19;100.00
61318;BME280;47201;40.428;-8.436;2022-10-16T05:01:24;100402.06;;;16.23;100.00
61318;BME280;47201;40.428;-8.436;2022-10-16T05:03:24;100404.78;;;16.20;100.00
61318;BME280;47201;40.428;-8.436;2022-10-16T05:05:25;100394.19;;;16.21;100.00
61318;BME280;47201;40.428;-8.436;2022-10-16T05:07:25;100394.06;;;16.26;100.00
61318;BME280;47201;40.428;-8.436;2022-10-16T05:09:26;100400.31;;;16.23;100.00
61318;BME280;47201;40.428;-8.436;2022-10-16T05:11:26;100394.00;;;16.27;100.00
61318;BME280;47201;40.428;-8.436;2022-10-16T05:13:27;100401.09;;;16.25;100.00
61318;BME280;47201;40.428;-8.436;2022-10-16T05:15:27;100401.22;;;16.22;100.00
61318;BME280;47201;40.428;-8.436;2022-10-16T05:17:28;100401.09;;;16.25;100.00
61318;BME280;47201;40.428;-8.436;2022-10-16T05:19:29;100396.66;;;16.27;100.00
61318;BME280;47201;40.428;-8.436;2022-10-16T05:21:30;100401.06;;;16.27;100.00
61318;BME280;47201;40.428;-8.436;2022-10-16T05:23:30;100399.22;;;16.29;100.00
61318;BME280;47201;40.428;-8.436;2022-10-16T05:25:31;100403.50;;;16.33;100.00
61318;BME280;47201;40.428;-8.436;2022-10-16T05:27:31;100406.94;;;16.37;100.00
61318;BME280;47201;40.428;-8.436;2022-10-16T05:29:32;100413.09;;;16.36;100.00
61318;BME280;47201;40.428;-8.436;2022-10-16T05:31:32;100422.69;;;16.38;100.00
61318;BME280;47201;40.428;-8.436;2022-10-16T05:33:33;100409.78;;;16.29;100.00
61318;BME280;47201;40.428;-8.436;2022-10-16T05:35:33;100408.16;;;16.25;100.00
61318;BME280;47201;40.428;-8.436;2022-10-16T05:37:34;100405.41;;;16.28;100.00
61318;BME280;47201;40.428;-8.436;2022-10-16T05:39:34;100408.03;;;16.28;100.00
61318;BME280;47201;40.428;-8.436;2022-10-16T05:41:37;100411.63;;;16.27;100.00
61318;BME280;47201;40.428;-8.436;2022-10-16T05:43:37;100408.03;;;16.28;100.00
61318;BME280;47201;40.428;-8.436;2022-10-16T05:45:38;100408.03;;;16.29;100.00
61318;BME280;47201;40.428;-8.436;2022-10-16T05:47:38;100407.13;;;16.30;100.00
61318;BME280;47201;40.428;-8.436;2022-10-16T05:49:39;100416.72;;;16.33;100.00
61318;BME280;47201;40.428;-8.436;2022-10-16T05:51:39;100421.88;;;16.36;100.00
61318;BME280;47201;40.428;-8.436;2022-10-16T05:53:41;100428.78;;;16.40;100.00
61318;BME280;47201;40.428;-8.436;2022-10-16T05:55:42;100420.00;;;16.40;100.00
61318;BME280;47201;40.428;-8.436;2022-10-16T05:57:42;100433.16;;;16.41;100.00
61318;BME280;47201;40.428;-8.436;2022-10-16T05:59:43;100425.06;;;16.47;100.00
61318;BME280;47201;40.428;-8.436;2022-10-16T06:01:43;100426.63;;;16.53;100.00
61318;BME280;47201;40.428;-8.436;2022-10-16T06:03:44;100431.88;;;16.55;100.00
61318;BME280;47201;40.428;-8.436;2022-10-16T06:05:45;100439.81;;;16.53;100.00
61318;BME280;47201;40.428;-8.436;2022-10-16T06:07:45;100439.03;;;16.51;100.00
61318;BME280;47201;40.428;-8.436;2022-10-16T06:09:49;100438.00;;;16.55;100.00
61318;BME280;47201;40.428;-8.436;2022-10-16T06:11:50;100438.78;;;16.59;100.00
61318;BME280;47201;40.428;-8.436;2022-10-16T06:13:51;100444.81;;;16.62;100.00
61318;BME280;47201;40.428;-8.436;2022-10-16T06:15:51;100446.56;;;16.63;100.00
61318;BME280;47201;40.428;-8.436;2022-10-16T06:17:52;100439.47;;;16.65;100.00
61318;BME280;47201;40.428;-8.436;2022-10-16T06:19:52;100451.75;;;16.67;100.00
61318;BME280;47201;40.428;-8.436;2022-10-16T06:21:53;100446.47;;;16.67;100.00
61318;BME280;47201;40.428;-8.436;2022-10-16T06:23:54;100455.28;;;16.65;100.00
61318;BME280;47201;40.428;-8.436;2022-10-16T06:26:03;100463.03;;;16.72;100.00
61318;BME280;47201;40.428;-8.436;2022-10-16T06:28:04;100462.81;;;16.78;100.00
61318;BME280;47201;40.428;-8.436;2022-10-16T06:30:04;100463.72;;;16.77;100.00
61318;BME280;47201;40.428;-8.436;2022-10-16T06:32:05;100461.09;;;16.77;100.00
61318;BME280;47201;40.428;-8.436;2022-10-16T06:34:08;100458.44;;;16.78;100.00
61318;BME280;47201;40.428;-8.436;2022-10-16T06:36:12;100460.09;;;16.81;100.00
61318;BME280;47201;40.428;-8.436;2022-10-16T06:38:12;100470.84;;;16.75;100.00
61318;BME280;47201;40.428;-8.436;2022-10-16T06:40:13;100466.91;;;16.60;100.00
61318;BME280;47201;40.428;-8.436;2022-10-16T06:42:14;100462.78;;;16.51;100.00
61318;BME280;47201;40.428;-8.436;2022-10-16T06:44:15;100474.22;;;16.50;100.00
61318;BME280;47201;40.428;-8.436;2022-10-16T06:46:17;100476.75;;;16.53;100.00
61318;BME280;47201;40.428;-8.436;2022-10-16T06:48:18;100469.00;;;16.48;100.00
61318;BME280;47201;40.428;-8.436;2022-10-16T06:50:19;100470.88;;;16.45;100.00
61318;BME280;47201;40.428;-8.436;2022-10-16T06:52:20;100471.84;;;16.41;100.00
61318;BME280;47201;40.428;-8.436;2022-10-16T06:54:20;100469.16;;;16.42;100.00
61318;BME280;47201;40.428;-8.436;2022-10-16T06:56:21;100459.56;;;16.41;100.00
61318;BME280;47201;40.428;-8.436;2022-10-16T06:58:22;100455.84;;;16.47;100.00
61318;BME280;47201;40.428;-8.436;2022-10-16T07:00:23;100462.06;;;16.44;100.00
61318;BME280;47201;40.428;-8.436;2022-10-16T07:02:23;100464.00;;;16.39;100.00
61318;BME280;47201;40.428;-8.436;2022-10-16T07:04:24;100468.50;;;16.36;100.00
61318;BME280;47201;40.428;-8.436;2022-10-16T07:06:25;100466.72;;;16.36;100.00
61318;BME280;47201;40.428;-8.436;2022-10-16T07:08:25;100473.59;;;16.42;100.00
61318;BME280;47201;40.428;-8.436;2022-10-16T07:10:26;100468.25;;;16.45;100.00
61318;BME280;47201;40.428;-8.436;2022-10-16T07:12:26;100481.44;;;16.43;100.00
61318;BME280;47201;40.428;-8.436;2022-10-16T07:14:27;100480.78;;;16.37;100.00
61318;BME280;47201;40.428;-8.436;2022-10-16T07:16:29;100485.19;;;16.36;100.00
61318;BME280;47201;40.428;-8.436;2022-10-16T07:18:29;100477.13;;;16.41;100.00
61318;BME280;47201;40.428;-8.436;2022-10-16T07:20:32;100478.88;;;16.42;100.00
61318;BME280;47201;40.428;-8.436;2022-10-16T07:22:33;100481.44;;;16.45;100.00
61318;BME280;47201;40.428;-8.436;2022-10-16T07:24:36;100477.06;;;16.44;100.00
61318;BME280;47201;40.428;-8.436;2022-10-16T07:26:37;100476.81;;;16.52;100.00
61318;BME280;47201;40.428;-8.436;2022-10-16T07:28:39;100481.97;;;16.56;100.00
61318;BME280;47201;40.428;-8.436;2022-10-16T07:30:40;100486.25;;;16.60;100.00
61318;BME280;47201;40.428;-8.436;2022-10-16T07:32:40;100486.09;;;16.65;100.00
61318;BME280;47201;40.428;-8.436;2022-10-16T07:34:41;100485.91;;;16.71;100.00
61318;BME280;47201;40.428;-8.436;2022-10-16T07:36:42;100497.25;;;16.75;100.00
61318;BME280;47201;40.428;-8.436;2022-10-16T07:38:43;100489.03;;;16.84;100.00
61318;BME280;47201;40.428;-8.436;2022-10-16T07:40:44;100491.34;;;16.96;100.00
61318;BME280;47201;40.428;-8.436;2022-10-16T07:42:44;100492.88;;;17.04;100.00
61318;BME280;47201;40.428;-8.436;2022-10-16T07:44:45;100488.22;;;17.10;100.00
61318;BME280;47201;40.428;-8.436;2022-10-16T07:46:45;100490.06;;;17.08;100.00
61318;BME280;47201;40.428;-8.436;2022-10-16T07:48:46;100484.75;;;17.10;100.00
61318;BME280;47201;40.428;-8.436;2022-10-16T07:50:48;100479.47;;;17.10;100.00
61318;BME280;47201;40.428;-8.436;2022-10-16T07:52:48;100479.25;;;17.16;100.00
61318;BME280;47201;40.428;-8.436;2022-10-16T07:54:49;100479.94;;;17.23;100.00
61318;BME280;47201;40.428;-8.436;2022-10-16T07:56:49;100484.28;;;17.24;100.00
61318;BME280;47201;40.428;-8.436;2022-10-16T07:58:50;100483.13;;;17.33;100.00
61318;BME280;47201;40.428;-8.436;2022-10-16T08:00:51;100480.22;;;17.40;100.00
61318;BME280;47201;40.428;-8.436;2022-10-16T08:02:51;100477.13;;;17.54;100.00
61318;BME280;47201;40.428;-8.436;2022-10-16T08:04:52;100487.63;;;17.56;100.00
61318;BME280;47201;40.428;-8.436;2022-10-16T08:06:52;100477.50;;;17.69;100.00
61318;BME280;47201;40.428;-8.436;2022-10-16T08:08:55;100484.28;;;17.76;100.00
61318;BME280;47201;40.428;-8.436;2022-10-16T08:10:56;100489.50;;;17.79;100.00
61318;BME280;47201;40.428;-8.436;2022-10-16T08:12:56;100490.06;;;17.87;100.00
61318;BME280;47201;40.428;-8.436;2022-10-16T08:14:57;100492.31;;;18.00;100.00
61318;BME280;47201;40.428;-8.436;2022-10-16T08:16:58;100499.91;;;18.09;100.00
61318;BME280;47201;40.428;-8.436;2022-10-16T08:18:58;100498.03;;;18.13;100.00
61318;BME280;47201;40.428;-8.436;2022-10-16T08:20:59;100505.84;;;18.16;100.00
61318;BME280;47201;40.428;-8.436;2022-10-16T08:23:02;100506.53;;;18.21;100.00
61318;BME280;47201;40.428;-8.436;2022-10-16T08:25:06;100509.16;;;18.21;100.00
61318;BME280;47201;40.428;-8.436;2022-10-16T08:27:07;100515.00;;;18.31;100.00
61318;BME280;47201;40.428;-8.436;2022-10-16T08:29:09;100507.69;;;18.37;100.00
61318;BME280;47201;40.428;-8.436;2022-10-16T08:31:11;100512.97;;;18.37;100.00
61318;BME280;47201;40.428;-8.436;2022-10-16T08:33:11;100505.56;;;18.47;100.00
61318;BME280;47201;40.428;-8.436;2022-10-16T08:35:12;100501.31;;;18.67;100.00
61318;BME280;47201;40.428;-8.436;2022-10-16T08:37:13;100493.00;;;18.76;100.00
61318;BME280;47201;40.428;-8.436;2022-10-16T08:39:15;100496.16;;;18.86;100.00
61318;BME280;47201;40.428;-8.436;2022-10-16T08:41:39;100494.75;;;19.22;100.00
61318;BME280;47201;40.428;-8.436;2022-10-16T08:50:17;100499.66;;;19.31;100.00
61318;BME280;47201;40.428;-8.436;2022-10-16T08:52:20;100501.31;;;19.33;100.00
61318;BME280;47201;40.428;-8.436;2022-10-16T08:54:34;100492.59;;;19.31;100.00
61318;BME280;47201;40.428;-8.436;2022-10-16T08:56:40;100499.09;;;19.45;100.00
61318;BME280;47201;40.428;-8.436;2022-10-16T08:58:48;100494.66;;;19.45;100.00
61318;BME280;47201;40.428;-8.436;2022-10-16T09:00:56;100494.00;;;19.61;100.00
61318;BME280;47201;40.428;-8.436;2022-10-16T09:03:40;100490.41;;;19.84;100.00
61318;BME280;47201;40.428;-8.436;2022-10-16T09:11:56;100515.56;;;20.55;100.00
61318;BME280;47201;40.428;-8.436;2022-10-16T09:14:00;100511.69;;;20.62;100.00
61318;BME280;47201;40.428;-8.436;2022-10-16T09:20:57;100527.19;;;20.90;100.00
61318;BME280;47201;40.428;-8.436;2022-10-16T09:22:38;100526.34;;;20.90;100.00
61318;BME280;47201;40.428;-8.436;2022-10-16T09:24:39;100535.84;;;20.76;100.00
61318;BME280;47201;40.428;-8.436;2022-10-16T09:26:40;100526.66;;;20.63;100.00
61318;BME280;47201;40.428;-8.436;2022-10-16T09:28:40;100523.31;;;20.79;100.00
61318;BME280;47201;40.428;-8.436;2022-10-16T09:30:41;100532.47;;;20.92;100.00
61318;BME280;47201;40.428;-8.436;2022-10-16T09:32:43;100534.16;;;20.74;100.00
61318;BME280;47201;40.428;-8.436;2022-10-16T09:34:52;100520.31;;;20.86;100.00
61318;BME280;47201;40.428;-8.436;2022-10-16T09:36:52;100536.75;;;20.75;100.00
61318;BME280;47201;40.428;-8.436;2022-10-16T09:39:07;100530.22;;;20.83;100.00
61318;BME280;47201;40.428;-8.436;2022-10-16T09:41:18;100532.91;;;21.00;100.00
61318;BME280;47201;40.428;-8.436;2022-10-16T09:43:21;100527.16;;;20.92;100.00
61318;BME280;47201;40.428;-8.436;2022-10-16T09:45:23;100527.16;;;20.71;100.00
61318;BME280;47201;40.428;-8.436;2022-10-16T09:47:24;100526.66;;;20.63;100.00
61318;BME280;47201;40.428;-8.436;2022-10-16T09:49:26;100519.00;;;20.95;100.00
61318;BME280;47201;40.428;-8.436;2022-10-16T09:51:29;100516.41;;;21.30;100.00
61318;BME280;47201;40.428;-8.436;2022-10-16T09:54:13;100516.66;;;21.43;100.00
61318;BME280;47201;40.428;-8.436;2022-10-16T09:55:56;100513.75;;;21.67;100.00
61318;BME280;47201;40.428;-8.436;2022-10-16T09:57:57;100504.28;;;21.79;100.00
61318;BME280;47201;40.428;-8.436;2022-10-16T09:59:58;100511.22;;;22.66;100.00
61318;BME280;47201;40.428;-8.436;2022-10-16T10:02:02;100500.47;;;23.76;100.00
61318;BME280;47201;40.428;-8.436;2022-10-16T10:04:04;100509.03;;;24.70;100.00
61318;BME280;47201;40.428;-8.436;2022-10-16T10:06:06;100507.06;;;24.86;96.08
61318;BME280;47201;40.428;-8.436;2022-10-16T10:08:14;100505.50;;;24.12;99.56
61318;BME280;47201;40.428;-8.436;2022-10-16T10:10:22;100499.97;;;23.70;100.00
61318;BME280;47201;40.428;-8.436;2022-10-16T10:12:24;100503.56;;;23.08;100.00
61318;BME280;47201;40.428;-8.436;2022-10-16T10:16:40;100488.84;;;22.19;100.00
61318;BME280;47201;40.428;-8.436;2022-10-16T10:18:41;100500.91;;;21.93;100.00
61318;BME280;47201;40.428;-8.436;2022-10-16T10:20:41;100512.97;;;21.65;100.00
61318;BME280;47201;40.428;-8.436;2022-10-16T10:22:43;100510.81;;;21.54;100.00
61318;BME280;47201;40.428;-8.436;2022-10-16T10:24:55;100518.09;;;21.50;100.00
61318;BME280;47201;40.428;-8.436;2022-10-16T10:27:02;100519.78;;;21.34;100.00
61318;BME280;47201;40.428;-8.436;2022-10-16T10:29:11;100508.59;;;21.45;100.00
61318;BME280;47201;40.428;-8.436;2022-10-16T10:31:27;100509.13;;;21.70;100.00
61318;BME280;47201;40.428;-8.436;2022-10-16T10:35:45;100507.91;;;22.11;100.00
61318;BME280;47201;40.428;-8.436;2022-10-16T10:42:28;100511.13;;;23.00;100.00
61318;BME280;47201;40.428;-8.436;2022-10-16T10:46:55;100502.44;;;23.58;100.00
61318;BME280;47201;40.428;-8.436;2022-10-16T10:51:13;100499.06;;;23.24;100.00
61318;BME280;47201;40.428;-8.436;2022-10-16T10:57:55;100472.19;;;24.32;97.66
61318;BME280;47201;40.428;-8.436;2022-10-16T11:06:20;100483.25;;;24.54;94.87
61318;BME280;47201;40.428;-8.436;2022-10-16T11:10:44;100476.00;;;25.79;89.46
61318;BME280;47201;40.428;-8.436;2022-10-16T11:12:47;100475.44;;;27.48;80.44
61318;BME280;47201;40.428;-8.436;2022-10-16T11:17:01;100450.22;;;31.53;51.83
61318;BME280;47201;40.428;-8.436;2022-10-16T11:21:19;100450.28;;;32.28;44.88
61318;BME280;47201;40.428;-8.436;2022-10-16T11:25:40;100442.00;;;29.10;48.73
61318;BME280;47201;40.428;-8.436;2022-10-16T11:27:55;100434.50;;;28.37;50.08
61318;BME280;47201;40.428;-8.436;2022-10-16T11:29:58;100436.94;;;27.36;53.15
61318;BME280;47201;40.428;-8.436;2022-10-16T11:32:01;100430.59;;;27.02;53.84
61318;BME280;47201;40.428;-8.436;2022-10-16T11:34:10;100434.38;;;28.27;51.24